Time;durP1;ratioP1;P1;durP2;ratioP2;P2;SDS_P1;SDS_P2;PMS_P1;PMS_P2;Temp;Humidity;BMP_temperature;BMP_pressure;BME280_temperature;BME280_humidity;BME280_pressure;Samples;Min_cycle;Max_cycle;Signal;HPM_P1;HPM_P2
2023/03/08 00:02:00;;;;;;;2.77;2.50;;;0.70;99.90;;;;;;5162789;28;20187;-49
2023/03/08 00:04:31;;;;;;;3.23;2.00;;;0.60;99.90;;;;;;5172441;28;20215;-48
2023/03/08 00:07:02;;;;;;;2.80;2.03;;;0.60;99.90;;;;;;5165677;28;20718;-48
2023/03/08 00:09:32;;;;;;;1.90;1.80;;;0.50;99.90;;;;;;5165536;28;20276;-48
2023/03/08 00:12:03;;;;;;;4.00;1.63;;;0.50;99.90;;;;;;5163410;28;20211;-48
2023/03/08 00:14:34;;;;;;;4.73;2.00;;;0.40;99.90;;;;;;5164184;28;20287;-50
2023/03/08 00:17:05;;;;;;;5.03;2.87;;;0.30;99.90;;;;;;5164318;28;20647;-51
2023/03/08 00:19:36;;;;;;;5.50;1.93;;;0.30;99.90;;;;;;5164382;28;20412;-49
2023/03/08 00:22:06;;;;;;;2.00;1.37;;;0.40;99.90;;;;;;5164854;28;21067;-48
2023/03/08 00:24:37;;;;;;;1.70;1.60;;;0.40;99.90;;;;;;5164673;28;20201;-49
2023/03/08 00:27:09;;;;;;;4.43;2.37;;;0.30;99.90;;;;;;5165365;28;20206;-48
2023/03/08 00:29:40;;;;;;;2.73;1.90;;;0.20;99.90;;;;;;5164841;28;20709;-48
2023/03/08 00:32:11;;;;;;;3.80;1.70;;;0.10;99.90;;;;;;5169692;28;20412;-50
2023/03/08 00:34:45;;;;;;;5.80;2.50;;;0.10;99.90;;;;;;5169107;28;20185;-49
2023/03/08 00:37:15;;;;;;;4.33;2.73;;;0.10;99.90;;;;;;5169764;28;20181;-48
2023/03/08 00:39:51;;;;;;;4.67;2.27;;;0.20;99.90;;;;;;5167163;28;20434;-48
2023/03/08 00:42:22;;;;;;;8.80;2.80;;;0.10;99.90;;;;;;5168495;28;20190;-49
2023/03/08 00:44:53;;;;;;;6.33;2.40;;;0.00;99.90;;;;;;5167022;28;20483;-50
2023/03/08 00:47:23;;;;;;;5.57;2.90;;;0.10;99.90;;;;;;5166575;28;20468;-49
2023/03/08 00:49:54;;;;;;;7.80;2.90;;;0.10;99.90;;;;;;5168933;28;20545;-50
2023/03/08 00:52:25;;;;;;;5.10;2.80;;;0.00;99.90;;;;;;5169170;28;20185;-48
2023/03/08 00:54:55;;;;;;;5.00;2.70;;;0.10;99.90;;;;;;5166384;28;20186;-50
2023/03/08 00:57:26;;;;;;;2.90;2.53;;;0.10;99.90;;;;;;5168634;28;20219;-48
2023/03/08 00:59:56;;;;;;;6.10;3.13;;;0.10;99.90;;;;;;5168412;28;20195;-48
2023/03/08 01:02:27;;;;;;;4.90;2.70;;;0.10;99.90;;;;;;5167644;28;20181;-47
2023/03/08 01:04:58;;;;;;;8.30;2.83;;;0.00;99.90;;;;;;5166138;28;20213;-47
2023/03/08 01:07:29;;;;;;;3.50;3.17;;;0.00;99.90;;;;;;5168062;28;20242;-48
2023/03/08 01:09:59;;;;;;;4.50;3.10;;;0.00;99.90;;;;;;5170248;28;20311;-47
2023/03/08 01:12:34;;;;;;;2.87;2.63;;;-0.10;99.90;;;;;;5167210;28;20517;-47
2023/03/08 01:15:06;;;;;;;10.13;3.60;;;-0.20;99.90;;;;;;5167569;28;20194;-48
2023/03/08 01:17:37;;;;;;;4.20;3.67;;;-0.10;99.90;;;;;;5167885;28;20855;-47
2023/03/08 01:20:08;;;;;;;6.83;3.00;;;0.10;99.90;;;;;;5168455;28;20441;-47
2023/03/08 01:22:39;;;;;;;4.90;2.97;;;-0.10;99.90;;;;;;5167926;28;20182;-46
2023/03/08 01:25:09;;;;;;;10.37;3.43;;;-0.10;99.90;;;;;;5168085;28;20470;-49
2023/03/08 01:27:40;;;;;;;5.50;2.90;;;-0.10;99.90;;;;;;5167668;28;20200;-48
2023/03/08 01:30:11;;;;;;;12.10;3.40;;;-0.20;99.90;;;;;;5167296;28;20221;-49
2023/03/08 01:32:41;;;;;;;3.40;3.07;;;-0.10;99.90;;;;;;5167648;28;20191;-49
2023/03/08 01:35:12;;;;;;;2.30;2.20;;;-0.10;99.90;;;;;;5167103;28;20432;-50
2023/03/08 01:37:43;;;;;;;3.70;2.70;;;-0.20;99.90;;;;;;5169441;28;20562;-48
2023/03/08 01:40:17;;;;;;;3.33;3.00;;;-0.10;99.90;;;;;;5167244;28;20285;-49
2023/03/08 01:42:48;;;;;;;6.03;3.20;;;-0.20;99.90;;;;;;5166180;28;20182;-48
2023/03/08 01:45:57;;;;;;;3.83;3.50;;;-0.20;99.90;;;;;;5164808;28;20476;-49
2023/03/08 01:49:01;;;;;;;6.30;3.47;;;-0.20;99.90;;;;;;5165566;28;20200;-49
2023/03/08 01:51:55;;;;;;;3.93;3.40;;;-0.20;99.90;;;;;;5147756;28;20467;-49
2023/03/08 01:54:33;;;;;;;7.50;4.87;;;-0.20;99.90;;;;;;5162869;28;20493;-50
2023/03/08 01:57:15;;;;;;;6.60;4.00;;;-0.20;99.90;;;;;;5168153;28;20434;-47
2023/03/08 01:59:49;;;;;;;8.80;4.10;;;-0.20;99.90;;;;;;5166408;28;20468;-48
2023/03/08 02:02:25;;;;;;;5.70;4.10;;;-0.20;99.90;;;;;;5164961;28;20434;-49
2023/03/08 02:04:55;;;;;;;12.77;5.20;;;-0.10;99.90;;;;;;5167869;28;20492;-48
2023/03/08 02:07:27;;;;;;;10.80;5.20;;;-0.20;99.90;;;;;;5166326;28;20455;-48
2023/03/08 02:09:58;;;;;;;9.30;4.83;;;-0.20;99.90;;;;;;5164663;28;20185;-49
2023/03/08 02:12:30;;;;;;;7.83;5.00;;;-0.20;99.90;;;;;;5167232;28;20441;-47
2023/03/08 02:15:02;;;;;;;4.83;4.47;;;-0.20;99.90;;;;;;5165823;28;20185;-48
2023/03/08 02:17:38;;;;;;;7.50;5.23;;;-0.20;99.90;;;;;;5167763;28;20458;-49
2023/03/08 02:20:28;;;;;;;11.83;5.70;;;-0.20;99.90;;;;;;5164503;28;20436;-48
2023/03/08 02:23:09;;;;;;;9.43;6.00;;;-0.20;99.90;;;;;;5174895;28;20452;-48
2023/03/08 02:25:46;;;;;;;11.30;6.63;;;-0.20;99.90;;;;;;5164937;28;20944;-48
2023/03/08 02:28:19;;;;;;;8.07;6.07;;;-0.30;99.90;;;;;;5166713;28;20460;-48
2023/03/08 02:30:49;;;;;;;9.40;6.20;;;-0.30;99.90;;;;;;5167419;28;20440;-49
2023/03/08 02:33:21;;;;;;;21.83;6.27;;;-0.30;99.90;;;;;;5167432;28;20485;-48
2023/03/08 02:35:52;;;;;;;6.73;5.33;;;-0.30;99.90;;;;;;5166383;28;21842;-47
2023/03/08 02:38:22;;;;;;;12.00;7.33;;;-0.40;99.90;;;;;;5167957;28;20924;-47
2023/03/08 02:40:53;;;;;;;13.40;6.00;;;-0.40;99.90;;;;;;5167544;28;20536;-47
2023/03/08 02:43:24;;;;;;;17.33;7.10;;;-0.50;99.90;;;;;;5167912;28;20189;-48
2023/03/08 02:45:55;;;;;;;13.53;6.90;;;-0.50;99.90;;;;;;5167347;28;20215;-48
2023/03/08 02:48:25;;;;;;;12.93;7.43;;;-0.40;99.90;;;;;;5164248;28;20213;-48
2023/03/08 02:50:56;;;;;;;13.43;7.13;;;-0.50;99.90;;;;;;5164932;28;20240;-47
2023/03/08 02:53:26;;;;;;;12.53;7.30;;;-0.50;99.90;;;;;;5162497;28;20189;-48
2023/03/08 02:55:57;;;;;;;12.90;7.97;;;-0.40;99.90;;;;;;5165952;28;20178;-49
2023/03/08 02:58:28;;;;;;;8.73;7.30;;;-0.30;99.90;;;;;;5165439;28;20202;-49
2023/03/08 03:00:58;;;;;;;11.80;8.30;;;-0.20;99.90;;;;;;5165211;28;20184;-48
2023/03/08 03:03:30;;;;;;;10.97;6.30;;;-0.10;99.90;;;;;;5165403;28;20200;-48
2023/03/08 03:06:00;;;;;;;14.47;8.33;;;-0.10;99.90;;;;;;5164887;28;20604;-51
2023/03/08 03:08:31;;;;;;;14.80;8.80;;;-0.10;99.90;;;;;;5165097;28;20483;-49
2023/03/08 03:11:10;;;;;;;17.20;10.23;;;0.20;99.90;;;;;;5163813;28;20274;-49
2023/03/08 03:13:41;;;;;;;10.53;8.57;;;0.20;99.90;;;;;;5176739;28;20724;-48
2023/03/08 03:16:14;;;;;;;17.23;9.03;;;0.20;99.90;;;;;;5165175;28;20580;-49
2023/03/08 03:18:44;;;;;;;13.07;9.00;;;0.30;99.90;;;;;;5166902;28;20469;-49
2023/03/08 03:21:15;;;;;;;12.50;7.80;;;0.30;99.90;;;;;;5149426;28;20789;-49
2023/03/08 03:23:46;;;;;;;10.70;6.90;;;0.50;99.90;;;;;;5164075;28;20652;-48
2023/03/08 03:26:20;;;;;;;12.80;8.20;;;0.40;99.90;;;;;;5167903;28;20301;-48
2023/03/08 03:28:51;;;;;;;18.97;9.93;;;0.40;99.90;;;;;;5166051;28;20279;-48
2023/03/08 03:31:24;;;;;;;13.57;8.23;;;0.50;99.90;;;;;;5165730;28;20432;-48
2023/03/08 03:33:54;;;;;;;10.40;8.67;;;0.50;99.90;;;;;;5166709;28;20467;-47
2023/03/08 03:36:25;;;;;;;16.20;8.53;;;0.50;99.90;;;;;;5166389;28;20441;-49
2023/03/08 03:38:57;;;;;;;9.60;8.23;;;0.50;99.90;;;;;;5175589;23;20234;-50
2023/03/08 03:41:27;;;;;;;14.30;10.10;;;0.40;99.90;;;;;;5163341;28;20208;-52
2023/03/08 03:43:58;;;;;;;15.37;9.97;;;0.50;99.90;;;;;;5163563;28;20428;-51
2023/03/08 03:46:29;;;;;;;16.57;9.10;;;0.50;99.90;;;;;;5162887;28;20187;-52
2023/03/08 03:48:59;;;;;;;18.77;10.50;;;0.60;99.90;;;;;;5161568;28;20232;-55
2023/03/08 03:51:30;;;;;;;24.13;11.07;;;0.50;99.90;;;;;;5158871;28;20263;-52
2023/03/08 03:54:01;;;;;;;13.33;9.77;;;0.50;99.90;;;;;;5158192;28;20190;-52
2023/03/08 03:56:32;;;;;;;11.27;8.97;;;0.50;99.90;;;;;;5160953;28;20189;-52
2023/03/08 03:59:02;;;;;;;13.60;9.40;;;0.50;99.90;;;;;;5162041;28;20212;-52
2023/03/08 04:01:33;;;;;;;12.30;9.90;;;0.60;99.90;;;;;;5158981;28;20185;-52
2023/03/08 04:04:04;;;;;;;20.57;12.00;;;0.60;99.90;;;;;;5159015;28;20219;-51
2023/03/08 04:06:35;;;;;;;23.10;11.37;;;0.60;99.90;;;;;;5165660;28;20185;-51
2023/03/08 04:09:11;;;;;;;22.63;11.47;;;0.50;99.90;;;;;;5163816;28;20197;-51
2023/03/08 04:11:42;;;;;;;14.73;10.07;;;0.70;99.90;;;;;;5165349;28;20472;-51
2023/03/08 04:14:13;;;;;;;13.83;10.10;;;0.70;99.90;;;;;;5162082;28;20436;-51
2023/03/08 04:16:43;;;;;;;22.20;11.00;;;0.70;99.90;;;;;;5159333;28;20224;-51
2023/03/08 04:19:14;;;;;;;13.97;10.37;;;0.70;99.90;;;;;;5179656;28;20205;-51
2023/03/08 04:21:45;;;;;;;12.70;10.27;;;0.80;99.90;;;;;;5165257;28;20180;-52
2023/03/08 04:24:15;;;;;;;23.40;10.53;;;0.70;99.90;;;;;;5165430;28;20182;-51
2023/03/08 04:26:46;;;;;;;15.03;9.33;;;0.70;99.90;;;;;;5166477;28;20644;-51
2023/03/08 04:29:17;;;;;;;13.00;10.17;;;0.60;99.90;;;;;;5164877;28;20232;-51
2023/03/08 04:31:47;;;;;;;13.80;9.40;;;0.70;99.90;;;;;;5164911;28;20184;-52
2023/03/08 04:34:18;;;;;;;18.83;9.63;;;0.70;99.90;;;;;;5161839;28;20267;-52
2023/03/08 04:36:49;;;;;;;15.50;9.07;;;0.80;99.90;;;;;;5163674;28;20232;-51
2023/03/08 04:39:19;;;;;;;14.83;10.50;;;0.70;99.90;;;;;;5162309;28;20317;-52
2023/03/08 04:41:50;;;;;;;13.20;9.20;;;0.70;99.90;;;;;;5165099;28;20195;-52
2023/03/08 04:44:20;;;;;;;13.63;9.83;;;0.70;99.90;;;;;;5164360;28;20212;-51
2023/03/08 04:46:52;;;;;;;15.00;8.47;;;0.60;99.90;;;;;;5163336;28;20283;-51
2023/03/08 04:49:23;;;;;;;15.23;8.97;;;0.60;99.90;;;;;;5162306;28;20255;-51
2023/03/08 04:51:54;;;;;;;14.93;9.63;;;0.60;99.90;;;;;;5163390;28;20458;-52
2023/03/08 04:54:26;;;;;;;19.03;10.00;;;0.40;99.90;;;;;;5164456;28;20435;-52
2023/03/08 04:56:56;;;;;;;20.23;9.57;;;0.30;99.90;;;;;;5164651;28;20211;-53
2023/03/08 04:59:27;;;;;;;14.50;9.83;;;0.20;99.90;;;;;;5165489;28;20493;-52
2023/03/08 05:01:58;;;;;;;15.83;10.23;;;0.00;99.90;;;;;;5158360;28;20884;-51
2023/03/08 05:04:28;;;;;;;16.57;10.23;;;-0.20;99.90;;;;;;5161771;28;20699;-52
2023/03/08 05:06:59;;;;;;;18.07;10.03;;;-0.30;99.90;;;;;;5163469;28;20212;-51
2023/03/08 05:09:30;;;;;;;18.73;11.20;;;-0.40;99.90;;;;;;5161425;28;20211;-51
2023/03/08 05:12:01;;;;;;;18.17;11.13;;;-0.50;99.90;;;;;;5161183;28;20181;-53
2023/03/08 05:14:31;;;;;;;20.07;11.37;;;-0.50;99.90;;;;;;5162026;28;20257;-52
2023/03/08 05:17:03;;;;;;;13.10;9.97;;;-0.60;99.90;;;;;;5164797;28;20279;-52
2023/03/08 05:19:34;;;;;;;19.00;10.60;;;-0.70;99.90;;;;;;5144873;28;20208;-52
2023/03/08 05:22:04;;;;;;;15.63;10.40;;;-0.70;99.90;;;;;;5163610;28;20442;-53
2023/03/08 05:24:39;;;;;;;15.53;10.53;;;-0.70;99.90;;;;;;5163606;28;20636;-53
2023/03/08 05:27:10;;;;;;;19.70;10.33;;;-0.70;99.90;;;;;;5165835;28;20490;-52
2023/03/08 05:29:41;;;;;;;13.80;8.80;;;-0.70;99.90;;;;;;5166939;28;20465;-52
2023/03/08 05:32:12;;;;;;;12.53;9.20;;;-0.60;99.90;;;;;;5162077;28;20177;-50
2023/03/08 05:34:43;;;;;;;15.70;8.37;;;-0.60;99.90;;;;;;5164494;28;20211;-52
2023/03/08 05:37:14;;;;;;;14.27;9.50;;;-0.50;99.90;;;;;;5162095;28;20874;-50
2023/03/08 05:39:46;;;;;;;13.93;8.10;;;-0.40;99.90;;;;;;5165536;28;20750;-52
2023/03/08 05:42:17;;;;;;;12.60;9.60;;;-0.20;99.90;;;;;;5164213;28;20206;-50
2023/03/08 05:44:47;;;;;;;13.60;8.87;;;-0.20;99.90;;;;;;5163192;28;20517;-51
2023/03/08 05:47:18;;;;;;;13.53;9.47;;;0.00;99.90;;;;;;5160967;28;20527;-52
2023/03/08 05:49:50;;;;;;;18.33;9.40;;;0.00;99.90;;;;;;5163005;28;20244;-53
2023/03/08 05:52:20;;;;;;;9.50;7.20;;;0.10;99.90;;;;;;5159078;28;20198;-52
2023/03/08 05:54:51;;;;;;;15.20;8.40;;;0.20;99.90;;;;;;5159610;28;20492;-51
2023/03/08 05:57:22;;;;;;;11.83;8.60;;;0.20;99.90;;;;;;5158616;28;20186;-51
2023/03/08 05:59:52;;;;;;;14.53;8.47;;;0.40;99.90;;;;;;5151446;28;20198;-51
2023/03/08 06:02:23;;;;;;;11.40;7.17;;;0.40;99.90;;;;;;5152985;28;20203;-52
2023/03/08 06:04:54;;;;;;;7.07;6.43;;;0.40;99.90;;;;;;5155356;28;20858;-52
2023/03/08 06:07:26;;;;;;;8.83;7.27;;;0.40;99.90;;;;;;5162203;28;20190;-52
2023/03/08 06:09:56;;;;;;;8.00;6.67;;;0.50;99.90;;;;;;5163133;28;20606;-51
2023/03/08 06:12:27;;;;;;;14.10;7.70;;;0.50;99.90;;;;;;5161036;28;20482;-51
2023/03/08 06:14:58;;;;;;;7.53;6.27;;;0.70;99.90;;;;;;5164213;28;20316;-51
2023/03/08 06:17:28;;;;;;;13.40;7.37;;;0.70;99.90;;;;;;5162914;28;21201;-51
2023/03/08 06:19:59;;;;;;;9.63;6.90;;;0.80;99.90;;;;;;5162211;28;20673;-52
2023/03/08 06:22:29;;;;;;;8.53;7.00;;;0.80;99.90;;;;;;5161425;28;20191;-51
2023/03/08 06:25:01;;;;;;;8.47;6.60;;;0.90;99.90;;;;;;5161137;28;20216;-53
2023/03/08 06:27:32;;;;;;;10.17;7.10;;;0.90;99.90;;;;;;5161181;28;20248;-52
2023/03/08 06:30:03;;;;;;;8.17;6.40;;;1.00;99.90;;;;;;5163780;28;20459;-51
2023/03/08 06:32:34;;;;;;;10.87;6.90;;;1.00;99.90;;;;;;5162667;28;20637;-51
2023/03/08 06:35:05;;;;;;;9.00;6.53;;;1.10;99.90;;;;;;5161931;28;20564;-53
2023/03/08 06:37:36;;;;;;;9.00;7.60;;;1.20;99.90;;;;;;5160832;28;20431;-52
2023/03/08 06:40:08;;;;;;;8.23;6.77;;;1.30;99.90;;;;;;5157422;28;20990;-53
2023/03/08 06:42:39;;;;;;;9.43;6.73;;;1.40;99.90;;;;;;5162428;28;20209;-51
2023/03/08 06:45:10;;;;;;;8.70;6.90;;;1.60;99.90;;;;;;5163295;28;20460;-52
2023/03/08 06:47:41;;;;;;;11.50;7.17;;;2.00;99.90;;;;;;5154818;28;20220;-52
2023/03/08 06:50:12;;;;;;;9.40;6.70;;;3.50;99.90;;;;;;5160651;28;20444;-51
2023/03/08 06:52:42;;;;;;;9.63;5.13;;;6.30;99.90;;;;;;5145201;28;20193;-54
2023/03/08 06:55:13;;;;;;;5.80;5.30;;;8.60;99.90;;;;;;5159240;28;20197;-52
2023/03/08 06:57:45;;;;;;;8.23;4.97;;;8.80;86.30;;;;;;5158929;28;20686;-53
2023/03/08 07:00:17;;;;;;;7.17;5.23;;;8.50;90.10;;;;;;5156536;28;20301;-53
2023/03/08 07:02:48;;;;;;;4.53;4.20;;;8.10;86.40;;;;;;5155364;28;20437;-52
2023/03/08 07:05:19;;;;;;;9.20;4.70;;;8.10;90.20;;;;;;5155533;28;21193;-53
2023/03/08 07:07:49;;;;;;;9.93;5.40;;;8.00;88.10;;;;;;5156510;28;20478;-52
2023/03/08 07:10:21;;;;;;;4.63;4.23;;;7.60;90.00;;;;;;5149314;28;21018;-51
2023/03/08 07:12:51;;;;;;;5.23;4.73;;;7.30;91.20;;;;;;5153338;28;20687;-52
2023/03/08 07:15:23;;;;;;;6.83;4.77;;;7.20;92.90;;;;;;5158296;28;20438;-50
2023/03/08 07:17:55;;;;;;;6.47;4.90;;;7.80;92.00;;;;;;5154680;28;20212;-50
2023/03/08 07:20:26;;;;;;;5.90;4.67;;;8.60;87.70;;;;;;5162824;28;20522;-51
2023/03/08 07:23:00;;;;;;;4.93;4.53;;;9.30;76.50;;;;;;5158113;28;20447;-54
2023/03/08 07:25:31;;;;;;;5.37;4.97;;;9.80;71.70;;;;;;5158610;28;20478;-53
2023/03/08 07:28:02;;;;;;;5.13;4.60;;;10.20;65.10;;;;;;5160148;28;20982;-51
2023/03/08 07:30:33;;;;;;;5.77;5.27;;;9.90;63.50;;;;;;5157467;28;20181;-51
2023/03/08 07:33:04;;;;;;;4.50;4.10;;;9.70;67.40;;;;;;5163328;28;20239;-53
2023/03/08 07:35:35;;;;;;;5.43;4.93;;;10.20;64.90;;;;;;5151258;28;20441;-52
2023/03/08 07:38:06;;;;;;;9.73;4.77;;;10.80;64.10;;;;;;5147648;28;20206;-53
2023/03/08 07:40:37;;;;;;;4.43;4.13;;;11.50;58.80;;;;;;5159723;28;20450;-53
2023/03/08 07:43:08;;;;;;;4.20;3.90;;;12.10;55.40;;;;;;5160029;28;20220;-51
2023/03/08 07:45:39;;;;;;;8.20;4.97;;;12.50;53.60;;;;;;5161825;28;20205;-53
2023/03/08 07:48:09;;;;;;;9.90;4.63;;;12.60;51.60;;;;;;5158676;28;20225;-52
2023/03/08 07:50:40;;;;;;;9.07;4.77;;;12.80;51.20;;;;;;5161242;28;20511;-52
2023/03/08 07:53:11;;;;;;;5.50;4.60;;;13.20;50.40;;;;;;5163538;28;20248;-52
2023/03/08 07:55:42;;;;;;;5.10;4.63;;;13.20;48.40;;;;;;5160123;28;20193;-52
2023/03/08 07:58:13;;;;;;;4.80;4.37;;;12.30;49.80;;;;;;5162991;28;20201;-52
2023/03/08 08:00:43;;;;;;;4.73;4.33;;;11.80;51.70;;;;;;5165021;28;20189;-51
2023/03/08 08:03:14;;;;;;;5.90;5.03;;;10.60;53.10;;;;;;5161545;28;20430;-51
2023/03/08 08:05:45;;;;;;;5.30;4.90;;;9.30;56.20;;;;;;5157888;28;20300;-52
2023/03/08 08:08:15;;;;;;;5.70;5.20;;;8.20;59.50;;;;;;5162929;28;20197;-51
2023/03/08 08:10:46;;;;;;;4.90;4.60;;;7.40;66.40;;;;;;5162233;28;20177;-52
2023/03/08 08:13:17;;;;;;;5.00;4.70;;;7.00;74.70;;;;;;5158456;28;20178;-53
2023/03/08 08:15:58;;;;;;;7.67;4.60;;;6.70;84.50;;;;;;5161075;28;20181;-52
2023/03/08 08:18:28;;;;;;;7.00;5.00;;;6.40;88.90;;;;;;5161718;28;20295;-52
2023/03/08 08:21:04;;;;;;;5.93;5.33;;;6.20;91.80;;;;;;5155609;28;20526;-53
2023/03/08 08:23:35;;;;;;;6.60;5.07;;;6.20;92.10;;;;;;5160074;28;20192;-52
2023/03/08 08:26:09;;;;;;;6.93;4.80;;;6.10;91.60;;;;;;5157989;28;20471;-52
2023/03/08 08:28:41;;;;;;;10.80;5.80;;;6.20;91.00;;;;;;5156367;28;20459;-51
2023/03/08 08:31:15;;;;;;;5.53;4.90;;;6.20;93.10;;;;;;5154930;28;20452;-52
2023/03/08 08:33:46;;;;;;;5.47;4.60;;;6.30;93.00;;;;;;5158794;28;20518;-52
2023/03/08 08:36:18;;;;;;;6.23;5.10;;;6.40;92.10;;;;;;5159159;28;20531;-54
2023/03/08 08:38:49;;;;;;;7.67;5.10;;;6.60;92.00;;;;;;5160735;28;20216;-54
2023/03/08 08:41:22;;;;;;;5.40;4.90;;;6.50;90.80;;;;;;5160528;28;20816;-52
2023/03/08 08:43:55;;;;;;;10.20;4.40;;;6.40;91.80;;;;;;5157989;28;20479;-53
2023/03/08 08:46:27;;;;;;;5.27;4.77;;;6.40;92.10;;;;;;5155764;28;20533;-52
2023/03/08 08:48:58;;;;;;;5.70;4.50;;;6.40;91.90;;;;;;5160154;28;21067;-52
2023/03/08 08:51:28;;;;;;;5.10;4.60;;;6.30;90.00;;;;;;5164622;28;20473;-54
2023/03/08 08:53:59;;;;;;;8.40;5.00;;;6.40;90.20;;;;;;5159842;28;20185;-52
2023/03/08 08:56:29;;;;;;;4.20;4.00;;;6.70;90.40;;;;;;5163915;28;20267;-51
2023/03/08 08:59:01;;;;;;;6.93;4.63;;;6.70;90.00;;;;;;5160995;28;20197;-52
2023/03/08 09:01:34;;;;;;;7.57;4.60;;;6.80;90.30;;;;;;5165099;28;20192;-53
2023/03/08 09:04:05;;;;;;;4.50;4.10;;;7.00;86.90;;;;;;5162520;28;20457;-52
2023/03/08 09:06:36;;;;;;;5.73;4.90;;;6.70;83.40;;;;;;5161110;28;20475;-53
2023/03/08 09:09:06;;;;;;;4.40;4.00;;;6.70;84.70;;;;;;5158601;28;20217;-51
2023/03/08 09:11:37;;;;;;;4.10;3.80;;;6.60;86.10;;;;;;5160751;28;20443;-53
2023/03/08 09:14:08;;;;;;;7.97;4.23;;;6.60;85.10;;;;;;5158072;28;20747;-52
2023/03/08 09:16:39;;;;;;;5.50;4.70;;;6.40;80.60;;;;;;5159208;28;20189;-53
2023/03/08 09:19:10;;;;;;;4.17;3.77;;;6.00;80.20;;;;;;5158359;28;20209;-53
2023/03/08 09:21:41;;;;;;;3.37;3.20;;;5.90;85.90;;;;;;5159152;28;20197;-53
2023/03/08 09:24:12;;;;;;;3.20;3.00;;;5.80;86.70;;;;;;5164266;28;20448;-52
2023/03/08 09:26:42;;;;;;;3.40;3.07;;;5.70;87.90;;;;;;5156483;28;20687;-52
2023/03/08 09:29:13;;;;;;;5.60;3.13;;;5.70;88.80;;;;;;5158241;28;20539;-53
2023/03/08 09:31:44;;;;;;;3.33;3.13;;;5.80;87.90;;;;;;5158515;28;20192;-53
2023/03/08 09:34:15;;;;;;;8.37;3.63;;;5.80;89.10;;;;;;5161597;28;20180;-53
2023/03/08 09:36:46;;;;;;;5.20;3.53;;;5.90;88.50;;;;;;5160315;28;20432;-53
2023/03/08 09:39:17;;;;;;;3.20;3.00;;;6.00;87.20;;;;;;5158318;28;20205;-53
2023/03/08 09:41:51;;;;;;;5.10;3.17;;;6.00;85.30;;;;;;5142259;28;20450;-54
2023/03/08 09:44:46;;;;;;;3.33;3.07;;;6.00;84.90;;;;;;5163757;28;20263;-54
2023/03/08 09:47:41;;;;;;;3.97;2.70;;;6.00;83.80;;;;;;5158574;28;20447;-54
2023/03/08 09:50:12;;;;;;;12.00;2.70;;;6.10;80.90;;;;;;5159243;28;20508;-52
2023/03/08 09:53:05;;;;;;;2.67;2.43;;;6.20;79.00;;;;;;5159770;28;20440;-53
2023/03/08 09:55:42;;;;;;;5.30;2.70;;;6.30;78.60;;;;;;5163177;28;20181;-55
2023/03/08 09:58:34;;;;;;;2.50;2.30;;;6.30;74.80;;;;;;5176823;28;20546;-54
2023/03/08 10:01:39;;;;;;;8.80;2.53;;;6.30;73.80;;;;;;5160498;28;20436;-52
2023/03/08 10:04:47;;;;;;;17.33;3.03;;;6.10;73.00;;;;;;5161883;28;20442;-54
2023/03/08 10:07:30;;;;;;;2.80;2.60;;;6.40;73.00;;;;;;5162293;28;20468;-54
2023/03/08 10:10:29;;;;;;;6.40;2.50;;;6.50;72.10;;;;;;5158426;28;20975;-53
2023/03/08 10:13:06;;;;;;;5.80;2.57;;;6.80;68.60;;;;;;5156755;28;20432;-53
2023/03/08 10:15:44;;;;;;;3.80;2.40;;;7.10;67.30;;;;;;5155932;28;20433;-54
2023/03/08 10:18:28;;;;;;;2.03;1.90;;;7.10;66.10;;;;;;5158723;28;20477;-55
2023/03/08 10:21:00;;;;;;;2.53;2.43;;;7.30;67.50;;;;;;5161763;28;20726;-54
2023/03/08 10:23:32;;;;;;;2.30;2.10;;;7.70;65.70;;;;;;5161936;28;20443;-53
2023/03/08 10:26:09;;;;;;;4.37;2.53;;;8.00;61.70;;;;;;5159857;28;20475;-53
2023/03/08 10:28:40;;;;;;;2.07;1.97;;;8.10;61.10;;;;;;5157748;28;20459;-54
2023/03/08 10:31:26;;;;;;;1.70;1.70;;;8.10;58.80;;;;;;5153361;28;20441;-55
2023/03/08 10:34:21;;;;;;;7.47;2.60;;;8.10;59.90;;;;;;5161683;28;20435;-54
2023/03/08 10:37:05;;;;;;;3.60;2.47;;;8.20;59.70;;;;;;5159616;28;20432;-53
2023/03/08 10:39:37;;;;;;;7.47;1.93;;;8.20;59.10;;;;;;5157877;28;20566;-52
2023/03/08 10:42:15;;;;;;;9.13;4.30;;;8.40;58.70;;;;;;5158581;28;20490;-53
2023/03/08 10:44:51;;;;;;;3.60;2.70;;;8.20;57.00;;;;;;5161476;28;20455;-52
2023/03/08 10:47:26;;;;;;;5.60;2.57;;;8.10;57.60;;;;;;5158340;28;20570;-54
2023/03/08 10:50:18;;;;;;;5.70;1.83;;;7.80;57.60;;;;;;5157018;28;20472;-54
2023/03/08 10:52:50;;;;;;;13.20;2.40;;;7.80;57.90;;;;;;5158115;28;20530;-55
2023/03/08 10:55:28;;;;;;;2.63;2.20;;;7.90;57.80;;;;;;5158846;28;20496;-53
2023/03/08 10:58:00;;;;;;;5.73;2.00;;;7.70;57.90;;;;;;5161216;28;21023;-50
2023/03/08 11:00:37;;;;;;;6.00;2.57;;;7.70;57.30;;;;;;5161316;28;20455;-53
2023/03/08 11:03:17;;;;;;;14.03;2.83;;;7.50;57.50;;;;;;5160795;28;20428;-55
2023/03/08 11:06:00;;;;;;;2.30;2.20;;;7.60;57.00;;;;;;5158527;28;20566;-53
2023/03/08 11:08:37;;;;;;;10.13;3.40;;;7.70;57.10;;;;;;5151638;28;20468;-52
2023/03/08 11:11:13;;;;;;;3.93;2.73;;;7.70;57.50;;;;;;5151608;28;20797;-53
2023/03/08 11:13:46;;;;;;;5.83;2.50;;;7.70;57.50;;;;;;5152515;28;20454;-52
2023/03/08 11:16:35;;;;;;;3.73;3.30;;;7.60;57.30;;;;;;5151798;28;20443;-54
2023/03/08 11:19:14;;;;;;;7.43;4.30;;;7.30;57.50;;;;;;5162059;28;20979;-54
2023/03/08 11:21:55;;;;;;;6.10;3.80;;;7.20;59.10;;;;;;5161423;28;20455;-52
2023/03/08 11:24:49;;;;;;;3.90;3.70;;;7.20;60.60;;;;;;5159244;28;20435;-54
2023/03/08 11:27:43;;;;;;;3.37;3.07;;;7.30;61.80;;;;;;5161768;28;20901;-55
2023/03/08 11:30:39;;;;;;;5.50;3.40;;;7.40;61.50;;;;;;5153905;28;20436;-52
2023/03/08 11:33:49;;;;;;;5.00;3.33;;;7.30;60.20;;;;;;5157252;28;20435;-54
2023/03/08 11:36:37;;;;;;;4.07;3.87;;;7.30;61.20;;;;;;5157082;28;20448;-53
2023/03/08 11:39:27;;;;;;;4.73;3.77;;;7.30;61.20;;;;;;5160683;28;20471;-52
2023/03/08 11:42:17;;;;;;;11.10;4.47;;;7.40;60.80;;;;;;5161947;28;20486;-52
2023/03/08 11:45:02;;;;;;;4.50;3.77;;;7.30;60.20;;;;;;5159663;28;20491;-54
2023/03/08 11:47:47;;;;;;;11.30;3.27;;;6.90;60.60;;;;;;5159805;28;20523;-52
2023/03/08 11:50:25;;;;;;;3.63;2.83;;;6.60;60.20;;;;;;5157252;28;20447;-54
2023/03/08 11:52:59;;;;;;;14.37;7.70;;;6.20;61.20;;;;;;5157012;28;21109;-52
2023/03/08 11:55:48;;;;;;;4.40;2.90;;;6.20;62.40;;;;;;5155738;28;20427;-52
2023/03/08 11:58:29;;;;;;;5.23;3.83;;;6.20;62.80;;;;;;5154748;28;20475;-52
2023/03/08 12:01:15;;;;;;;3.67;2.50;;;6.40;62.50;;;;;;5159965;28;20449;-53
2023/03/08 12:03:51;;;;;;;5.83;3.17;;;6.20;61.40;;;;;;5159864;28;20636;-53
2023/03/08 12:06:28;;;;;;;7.40;3.57;;;5.90;62.90;;;;;;5158745;28;20475;-57
2023/03/08 12:09:07;;;;;;;2.77;2.57;;;6.20;63.60;;;;;;5151141;28;20463;-52
2023/03/08 12:11:42;;;;;;;3.10;2.90;;;6.30;62.40;;;;;;5158615;28;20825;-52
2023/03/08 12:14:16;;;;;;;3.00;2.70;;;6.50;61.50;;;;;;5157849;28;20447;-52
2023/03/08 12:16:49;;;;;;;4.07;3.40;;;6.60;61.80;;;;;;5158781;28;20486;-54
2023/03/08 12:19:34;;;;;;;3.40;3.20;;;6.70;60.90;;;;;;5157054;28;20459;-52
2023/03/08 12:22:29;;;;;;;4.67;3.40;;;6.70;60.50;;;;;;5160770;28;21000;-52
2023/03/08 12:25:21;;;;;;;10.40;2.53;;;6.70;62.00;;;;;;5158014;28;20940;-54
2023/03/08 12:28:25;;;;;;;7.10;3.77;;;6.90;62.10;;;;;;5162468;28;20463;-50
2023/03/08 12:31:02;;;;;;;5.20;3.30;;;7.00;62.50;;;;;;5160063;28;20440;-53
2023/03/08 12:33:33;;;;;;;4.80;2.80;;;7.00;60.90;;;;;;5156180;28;20467;-54
2023/03/08 12:36:06;;;;;;;5.40;3.50;;;6.60;61.40;;;;;;5162823;28;20440;-53
2023/03/08 12:38:44;;;;;;;3.27;3.03;;;6.60;61.60;;;;;;5160927;28;20475;-53
2023/03/08 12:41:23;;;;;;;7.60;2.73;;;6.70;61.40;;;;;;5170089;28;20450;-53
2023/03/08 12:44:04;;;;;;;3.90;2.70;;;6.50;61.50;;;;;;5157637;28;20475;-54
2023/03/08 12:46:49;;;;;;;3.40;3.03;;;6.60;62.60;;;;;;5162383;28;20475;-54
2023/03/08 12:49:37;;;;;;;2.87;2.67;;;6.70;62.40;;;;;;5164206;28;20942;-54
2023/03/08 12:52:16;;;;;;;4.50;3.50;;;6.50;62.20;;;;;;5162120;28;20505;-54
2023/03/08 12:54:58;;;;;;;13.60;3.40;;;6.40;63.00;;;;;;5157314;28;20518;-54
2023/03/08 12:57:44;;;;;;;3.30;3.10;;;6.40;62.00;;;;;;5161355;28;20940;-50
2023/03/08 13:00:24;;;;;;;3.07;2.87;;;6.40;62.50;;;;;;5159654;28;20483;-54
2023/03/08 13:03:18;;;;;;;3.17;2.60;;;6.40;62.60;;;;;;5160258;28;20436;-54
2023/03/08 13:05:49;;;;;;;2.87;2.67;;;6.50;62.20;;;;;;5158115;28;20471;-53
2023/03/08 13:08:38;;;;;;;3.53;2.80;;;6.60;62.10;;;;;;5158637;28;20455;-54
2023/03/08 13:11:12;;;;;;;3.67;3.27;;;6.20;63.40;;;;;;5162893;28;20432;-52
2023/03/08 13:13:56;;;;;;;10.23;2.97;;;6.30;64.50;;;;;;5159247;28;20527;-54
2023/03/08 13:16:37;;;;;;;4.40;3.53;;;6.30;65.00;;;;;;5157329;28;20512;-54
2023/03/08 13:19:13;;;;;;;3.43;3.00;;;6.40;64.80;;;;;;5162606;28;20511;-50
2023/03/08 13:21:55;;;;;;;6.80;3.60;;;6.10;64.80;;;;;;5161610;28;20461;-52
2023/03/08 13:24:39;;;;;;;3.40;3.10;;;6.00;64.80;;;;;;5157067;28;21019;-53
2023/03/08 13:27:49;;;;;;;3.97;3.40;;;5.80;65.60;;;;;;5160368;28;20419;-52
2023/03/08 13:30:54;;;;;;;14.00;5.20;;;6.00;65.40;;;;;;5156468;28;20440;-53